createdAt,value
2022-10-12T00:01:08.386Z,102069.25
2022-10-12T00:03:37.232Z,102070.91
2022-10-12T00:06:16.348Z,102068.97
2022-10-12T00:08:45.596Z,102073.06
2022-10-12T00:11:26.211Z,102073.06
2022-10-12T00:13:55.103Z,102074.63
2022-10-12T00:16:25.138Z,102077.28
2022-10-12T00:18:58.448Z,102079.81
2022-10-12T00:21:30.760Z,102079.00
2022-10-12T00:24:02.095Z,102079.34
2022-10-12T00:26:29.901Z,102074.09
2022-10-12T00:29:01.973Z,102072.41
2022-10-12T00:31:31.829Z,102079.22
2022-10-12T00:34:03.812Z,102079.97
2022-10-12T00:36:35.960Z,102079.72
2022-10-12T00:39:08.970Z,102074.56
2022-10-12T00:41:42.307Z,102078.16
2022-10-12T00:44:48.602Z,102075.16
2022-10-12T00:47:38.471Z,102084.94
2022-10-12T00:50:20.897Z,102081.38
2022-10-12T00:52:58.646Z,102081.16
2022-10-12T00:55:32.747Z,102079.81
2022-10-12T00:58:01.535Z,102082.25
2022-10-12T01:00:28.498Z,102080.50
2022-10-12T01:02:55.899Z,102085.88
2022-10-12T01:05:24.278Z,102088.41
2022-10-12T01:07:51.693Z,102089.59
2022-10-12T01:10:19.189Z,102091.81
2022-10-12T01:12:50.085Z,102084.44
2022-10-12T01:15:17.232Z,102088.03
2022-10-12T01:18:34.081Z,102093.75
2022-10-12T01:21:23.085Z,102090.50
2022-10-12T01:24:17.389Z,102087.75
2022-10-12T01:27:30.270Z,102086.94
2022-10-12T01:30:40.685Z,102088.25
2022-10-12T01:33:48.671Z,102086.72
2022-10-12T01:36:41.499Z,102093.03
2022-10-12T01:39:42.639Z,102087.22
2022-10-12T01:42:32.481Z,102096.50
2022-10-12T01:45:09.415Z,102092.09
2022-10-12T01:47:42.799Z,102089.81
2022-10-12T01:50:16.417Z,102097.00
2022-10-12T01:53:12.479Z,102094.72
2022-10-12T01:56:10.205Z,102091.63
2022-10-12T01:59:12.751Z,102094.38
2022-10-12T02:01:54.373Z,102094.13
2022-10-12T02:04:57.090Z,102087.81
2022-10-12T02:08:31.205Z,102089.50
2022-10-12T02:11:18.767Z,102089.00
2022-10-12T02:13:59.417Z,102078.25
2022-10-12T02:16:39.568Z,102073.50
2022-10-12T02:19:15.268Z,102074.31
2022-10-12T02:21:48.593Z,102081.84
2022-10-12T02:24:20.801Z,102081.84
2022-10-12T02:26:54.353Z,102080.06
2022-10-12T02:29:36.591Z,102070.66
2022-10-12T02:32:38.504Z,102072.94
2022-10-12T02:35:40.281Z,102075.91
2022-10-12T02:38:22.103Z,102069.13
2022-10-12T02:41:01.304Z,102071.84
2022-10-12T02:43:54.983Z,102067.44
2022-10-12T02:46:28.910Z,102072.22
2022-10-12T02:48:59.455Z,102071.97
2022-10-12T02:51:30.413Z,102066.75
2022-10-12T02:53:57.914Z,102063.63
2022-10-12T02:56:24.872Z,102060.66
2022-10-12T02:58:51.937Z,102066.75
2022-10-12T03:01:18.995Z,102057.19
2022-10-12T03:03:46.482Z,102063.28
2022-10-12T03:06:14.521Z,102061.59
2022-10-12T03:08:41.399Z,102071.38
2022-10-12T03:11:14.449Z,102070.53
2022-10-12T03:13:41.643Z,102060.88
2022-10-12T03:16:12.004Z,102059.47
2022-10-12T03:18:40.137Z,102060.53
2022-10-12T03:21:07.628Z,102057.19
2022-10-12T03:23:34.702Z,102064.09
2022-10-12T03:26:01.626Z,102057.56
2022-10-12T03:28:29.215Z,102055.41
2022-10-12T03:30:56.532Z,102057.56
2022-10-12T03:33:24.108Z,102059.94
2022-10-12T03:35:51.380Z,102061.47
2022-10-12T03:38:20.196Z,102063.38
2022-10-12T03:40:48.299Z,102052.06
2022-10-12T03:43:15.213Z,102055.66
2022-10-12T03:45:42.137Z,102052.06
2022-10-12T03:48:09.830Z,102049.31
2022-10-12T03:50:36.969Z,102052.53
2022-10-12T03:53:06.438Z,102048.84
2022-10-12T03:55:34.450Z,102038.13
2022-10-12T03:58:01.409Z,102047.19
2022-10-12T04:00:28.636Z,102053.25
2022-10-12T04:02:55.778Z,102056.34
2022-10-12T04:05:23.439Z,102047.31
2022-10-12T04:07:51.471Z,102053.38
2022-10-12T04:10:18.622Z,102056.94
2022-10-12T04:12:46.879Z,102054.22
2022-10-12T04:15:14.629Z,102054.06
2022-10-12T04:17:42.044Z,102059.81
2022-10-12T04:20:11.889Z,102055.38
2022-10-12T04:22:40.334Z,102062.06
2022-10-12T04:25:10.058Z,102066.94
2022-10-12T04:27:37.523Z,102064.31
2022-10-12T04:30:05.696Z,102070.00
2022-10-12T04:32:32.500Z,102063.81
2022-10-12T04:34:59.399Z,102062.13
2022-10-12T04:37:28.157Z,102065.84
2022-10-12T04:39:55.244Z,102059.28
2022-10-12T04:42:24.350Z,102063.94
2022-10-12T04:44:51.365Z,102067.72
2022-10-12T04:47:18.261Z,102073.19
2022-10-12T04:49:45.549Z,102074.63
2022-10-12T04:52:12.480Z,102075.47
2022-10-12T04:54:39.934Z,102075.00
2022-10-12T04:57:06.933Z,102068.91
2022-10-12T04:59:33.848Z,102063.09
2022-10-12T05:02:00.758Z,102073.19
2022-10-12T05:04:27.720Z,102072.38
2022-10-12T05:06:54.771Z,102074.28
2022-10-12T05:09:21.703Z,102073.91
2022-10-12T05:11:48.745Z,102066.28
2022-10-12T05:14:15.709Z,102075.94
2022-10-12T05:16:42.614Z,102069.41
2022-10-12T05:19:09.615Z,102072.84
2022-10-12T05:21:36.713Z,102072.00
2022-10-12T05:24:03.972Z,102074.13
2022-10-12T05:26:30.883Z,102071.38
2022-10-12T05:28:58.087Z,102069.84
2022-10-12T05:31:25.043Z,102078.44
2022-10-12T05:33:51.994Z,102076.19
2022-10-12T05:36:18.898Z,102081.28
2022-10-12T05:38:45.818Z,102083.66
2022-10-12T05:41:13.081Z,102082.59
2022-10-12T05:43:39.980Z,102086.53
2022-10-12T05:46:09.106Z,102082.13
2022-10-12T05:48:39.238Z,102083.53
2022-10-12T05:51:06.455Z,102084.16
2022-10-12T05:53:33.462Z,102082.00
2022-10-12T05:56:02.238Z,102078.56
2022-10-12T05:58:30.936Z,102080.38
2022-10-12T06:01:12.651Z,102084.31
2022-10-12T06:03:40.303Z,102087.41
2022-10-12T06:06:08.599Z,102083.59
2022-10-12T06:08:35.893Z,102083.75
2022-10-12T06:11:03.580Z,102080.88
2022-10-12T06:13:31.012Z,102078.63
2022-10-12T06:15:58.227Z,102088.66
2022-10-12T06:18:25.261Z,102082.44
2022-10-12T06:21:20.962Z,102081.72
2022-10-12T06:23:42.609Z,102087.13
2022-10-12T06:26:09.600Z,102094.34
2022-10-12T06:28:36.791Z,102096.41
2022-10-12T06:31:04.168Z,102097.13
2022-10-12T06:33:31.722Z,102091.50
2022-10-12T06:35:58.710Z,102108.09
2022-10-12T06:38:25.689Z,102095.91
2022-10-12T06:40:53.691Z,102101.84
2022-10-12T06:43:22.920Z,102101.00
2022-10-12T06:45:50.827Z,102094.06
2022-10-12T06:48:18.920Z,102097.63
2022-10-12T06:50:47.241Z,102101.75
2022-10-12T06:53:14.179Z,102105.63
2022-10-12T06:55:41.493Z,102109.00
2022-10-12T06:58:08.652Z,102105.47
2022-10-12T07:00:36.973Z,102104.13
2022-10-12T07:03:04.713Z,102100.66
2022-10-12T07:05:31.785Z,102103.22
2022-10-12T07:07:58.840Z,102106.59
2022-10-12T07:10:26.001Z,102111.63
2022-10-12T07:12:52.930Z,102106.66
2022-10-12T07:15:20.026Z,102105.47
2022-10-12T07:17:47.051Z,102108.72
2022-10-12T07:20:14.221Z,102108.63
2022-10-12T07:22:41.260Z,102107.22
2022-10-12T07:25:09.084Z,102107.69
2022-10-12T07:27:36.468Z,102105.38
2022-10-12T07:30:04.296Z,102109.63
2022-10-12T07:32:31.477Z,102111.66
2022-10-12T07:34:58.547Z,102117.56
2022-10-12T07:37:25.681Z,102117.94
2022-10-12T07:39:57.321Z,102114.13
2022-10-12T07:42:25.540Z,102109.00
2022-10-12T07:44:52.593Z,102115.44
2022-10-12T07:47:19.636Z,102118.53
2022-10-12T07:49:46.707Z,102109.41
2022-10-12T07:52:13.631Z,102110.22
2022-10-12T07:54:41.528Z,102110.47
2022-10-12T07:57:08.867Z,102110.41
2022-10-12T07:59:35.879Z,102111.69
2022-10-12T08:02:03.098Z,102109.13
2022-10-12T08:04:30.265Z,102101.19
2022-10-12T08:06:59.639Z,102106.34
2022-10-12T08:09:26.793Z,102112.63
2022-10-12T08:11:54.045Z,102110.66
2022-10-12T08:14:21.029Z,102104.72
2022-10-12T08:16:48.569Z,102110.13
2022-10-12T08:19:15.614Z,102106.06
2022-10-12T08:21:42.916Z,102107.50
2022-10-12T08:24:13.696Z,102107.09
2022-10-12T08:26:40.874Z,102108.72
2022-10-12T08:29:09.875Z,102112.59
2022-10-12T08:31:40.802Z,102107.59
2022-10-12T08:34:08.353Z,102105.63
2022-10-12T08:36:35.678Z,102104.31
2022-10-12T08:39:02.835Z,102105.50
2022-10-12T08:42:01.059Z,102108.97
2022-10-12T08:45:08.183Z,102101.44
2022-10-12T08:48:01.694Z,102115.81
2022-10-12T08:50:52.522Z,102110.31
2022-10-12T08:53:47.800Z,102093.03
2022-10-12T08:56:22.659Z,102087.97
2022-10-12T08:58:53.137Z,102098.25
2022-10-12T09:01:39.449Z,102100.97
2022-10-12T09:04:46.289Z,102100.09
2022-10-12T09:07:28.941Z,102100.22
2022-10-12T09:10:19.778Z,102090.47
2022-10-12T09:13:01.494Z,102090.06
2022-10-12T09:15:55.063Z,102081.19
2022-10-12T09:18:41.086Z,102089.59
2022-10-12T09:21:20.875Z,102079.38
2022-10-12T09:23:49.207Z,102088.16
2022-10-12T09:26:34.932Z,102082.78
2022-10-12T09:29:26.864Z,102081.25
2022-10-12T09:32:20.689Z,102076.13
2022-10-12T09:34:50.105Z,102085.81
2022-10-12T09:37:30.761Z,102073.38
2022-10-12T09:39:59.994Z,102073.38
2022-10-12T09:42:27.110Z,102084.72
2022-10-12T09:45:20.256Z,102076.91
2022-10-12T09:48:22.358Z,102070.28
2022-10-12T09:51:03.931Z,102069.66
2022-10-12T09:53:55.362Z,102072.53
2022-10-12T09:56:37.544Z,102082.09
2022-10-12T09:59:35.055Z,102068.28
2022-10-12T10:02:13.583Z,102078.75
2022-10-12T10:04:44.803Z,102069.50
2022-10-12T10:07:34.541Z,102073.84
2022-10-12T10:10:23.872Z,102066.16
2022-10-12T10:13:03.807Z,102067.53
2022-10-12T10:15:39.355Z,102068.69
2022-10-12T10:18:49.327Z,102064.06
2022-10-12T10:21:34.855Z,102070.53
2022-10-12T10:24:25.162Z,102057.97
2022-10-12T10:27:06.954Z,102065.63
2022-10-12T10:29:42.064Z,102061.47
2022-10-12T10:32:30.121Z,102060.66
2022-10-12T10:35:22.157Z,102063.28
2022-10-12T10:37:57.757Z,102054.59
2022-10-12T10:40:33.451Z,102059.56
2022-10-12T10:43:35.496Z,102049.34
2022-10-12T10:46:06.165Z,102052.34
2022-10-12T10:48:57.948Z,102056.03
2022-10-12T10:51:58.069Z,102040.63
2022-10-12T10:54:31.325Z,102043.94
2022-10-12T10:57:22.509Z,102049.38
2022-10-12T11:00:37.498Z,102044.75
2022-10-12T11:03:24.370Z,102049.13
2022-10-12T11:06:29.880Z,102038.84
2022-10-12T11:09:19.166Z,102046.22
2022-10-12T11:11:57.599Z,102036.50
2022-10-12T11:14:51.427Z,102032.75
2022-10-12T11:17:38.351Z,102036.06
2022-10-12T11:20:38.845Z,102027.78
2022-10-12T11:23:51.192Z,102024.94
2022-10-12T11:26:45.141Z,102017.28
2022-10-12T11:29:17.958Z,102012.66
2022-10-12T11:32:07.880Z,102005.59
2022-10-12T11:35:03.539Z,101997.75
2022-10-12T11:38:03.082Z,102005.03
2022-10-12T11:41:31.113Z,101998.25
2022-10-12T11:44:04.018Z,101993.47
2022-10-12T11:46:59.633Z,101994.09
2022-10-12T11:49:54.008Z,101994.31
2022-10-12T11:52:29.072Z,101989.84
2022-10-12T11:55:55.510Z,101988.25
2022-10-12T11:58:59.334Z,101978.47
2022-10-12T12:01:54.361Z,101970.44
2022-10-12T12:04:43.885Z,101980.63
2022-10-12T12:07:23.289Z,101971.09
2022-10-12T12:09:51.939Z,101968.13
2022-10-12T12:12:29.075Z,101959.72
2022-10-12T12:14:55.995Z,101960.53
2022-10-12T12:17:22.760Z,101962.16
2022-10-12T12:19:56.233Z,101961.53
2022-10-12T12:22:50.614Z,101944.44
2022-10-12T12:25:32.932Z,101951.66
2022-10-12T12:28:24.656Z,101948.75
2022-10-12T12:31:09.567Z,101943.19
2022-10-12T12:33:42.320Z,101954.06
2022-10-12T12:36:29.354Z,101944.13
2022-10-12T12:38:57.641Z,101950.69
2022-10-12T12:42:02.488Z,101952.59
2022-10-12T12:44:38.330Z,101944.25
2022-10-12T12:47:26.051Z,101949.19
2022-10-12T12:50:02.041Z,101942.00
2022-10-12T12:52:40.859Z,101939.59
2022-10-12T12:56:07.942Z,101933.03
2022-10-12T12:58:48.428Z,101939.47
2022-10-12T13:02:13.426Z,101927.31
2022-10-12T13:05:41.420Z,101929.47
2022-10-12T13:08:54.727Z,101915.00
2022-10-12T13:11:42.257Z,101924.06
2022-10-12T13:14:26.596Z,101918.94
2022-10-12T13:18:00.080Z,101922.88
2022-10-12T13:20:46.948Z,101912.78
2022-10-12T13:23:24.634Z,101919.88
2022-10-12T13:26:04.617Z,101914.75
2022-10-12T13:28:43.447Z,101911.47
2022-10-12T13:31:36.884Z,101907.41
2022-10-12T13:34:24.900Z,101901.50
2022-10-12T13:37:03.840Z,101905.44
2022-10-12T13:39:44.976Z,101896.84
2022-10-12T13:42:30.892Z,101896.75
2022-10-12T13:44:59.471Z,101893.56
2022-10-12T13:47:33.731Z,101898.19
2022-10-12T13:50:01.158Z,101899.66
2022-10-12T13:52:33.888Z,101897.22
2022-10-12T13:55:14.826Z,101899.03
2022-10-12T13:57:50.530Z,101894.88
2022-10-12T14:00:25.070Z,101891.22
2022-10-12T14:03:04.050Z,101892.25
2022-10-12T14:05:41.982Z,101883.44
2022-10-12T14:08:25.041Z,101879.25
2022-10-12T14:10:57.660Z,101882.66
2022-10-12T14:13:35.110Z,101877.38
2022-10-12T14:16:07.064Z,101876.00
2022-10-12T14:18:47.170Z,101873.88
2022-10-12T14:21:33.329Z,101871.88
2022-10-12T14:24:10.476Z,101863.91
2022-10-12T14:26:51.650Z,101866.00
2022-10-12T14:29:45.536Z,101867.19
2022-10-12T14:32:12.341Z,101860.09
2022-10-12T14:34:50.105Z,101853.28
2022-10-12T14:37:16.858Z,101854.28
2022-10-12T14:39:49.138Z,101851.34
2022-10-12T14:42:30.935Z,101842.59
2022-10-12T14:44:59.135Z,101847.50
2022-10-12T14:47:40.795Z,101846.50
2022-10-12T14:50:18.394Z,101857.47
2022-10-12T14:53:02.701Z,101849.50
2022-10-12T14:55:34.480Z,101854.72
2022-10-12T14:58:01.637Z,101854.22
2022-10-12T15:00:36.443Z,101849.56
2022-10-12T15:03:05.259Z,101840.31
2022-10-12T15:05:34.483Z,101843.59
2022-10-12T15:08:09.337Z,101843.72
2022-10-12T15:10:37.968Z,101831.47
2022-10-12T15:13:05.128Z,101829.91
2022-10-12T15:15:48.453Z,101835.56
2022-10-12T15:18:15.421Z,101834.47
2022-10-12T15:20:48.242Z,101831.28
2022-10-12T15:23:16.332Z,101826.28
2022-10-12T15:25:55.941Z,101822.25
2022-10-12T15:28:23.611Z,101821.66
2022-10-12T15:31:16.392Z,101812.78
2022-10-12T15:33:40.439Z,101815.06
2022-10-12T15:36:09.413Z,101818.06
2022-10-12T15:38:36.983Z,101813.53
2022-10-12T15:41:04.690Z,101816.97
2022-10-12T15:43:33.670Z,101816.13
2022-10-12T15:46:02.799Z,101816.75
2022-10-12T15:48:30.003Z,101818.19
2022-10-12T15:50:57.001Z,101801.78
2022-10-12T15:53:26.390Z,101809.28
2022-10-12T15:55:55.761Z,101805.94
2022-10-12T15:58:23.711Z,101798.69
2022-10-12T16:00:50.831Z,101802.53
2022-10-12T16:03:26.500Z,101806.63
2022-10-12T16:05:54.754Z,101804.09
2022-10-12T16:08:21.722Z,101802.09
2022-10-12T16:10:49.127Z,101803.06
2022-10-12T16:13:18.121Z,101804.56
2022-10-12T16:15:45.328Z,101800.78
2022-10-12T16:18:15.567Z,101792.91
2022-10-12T16:20:47.481Z,101806.09
2022-10-12T16:23:33.421Z,101801.50
2022-10-12T16:26:06.999Z,101804.38
2022-10-12T16:28:34.809Z,101795.59
2022-10-12T16:31:02.309Z,101806.81
2022-10-12T16:33:29.203Z,101804.41
2022-10-12T16:35:56.120Z,101811.72
2022-10-12T16:38:23.093Z,101811.63
2022-10-12T16:40:50.274Z,101813.38
2022-10-12T16:43:17.918Z,101804.00
2022-10-12T16:45:44.898Z,101806.78
2022-10-12T16:48:11.854Z,101796.06
2022-10-12T16:50:40.832Z,101798.06
2022-10-12T16:53:08.508Z,101799.75
2022-10-12T16:55:39.070Z,101802.00
2022-10-12T16:58:06.130Z,101795.69
2022-10-12T17:00:33.304Z,101803.19
2022-10-12T17:03:00.299Z,101803.75
2022-10-12T17:05:27.211Z,101797.09
2022-10-12T17:07:54.146Z,101804.09
2022-10-12T17:10:21.117Z,101800.53
2022-10-12T17:12:48.062Z,101806.09
2022-10-12T17:15:15.072Z,101801.44
2022-10-12T17:17:41.999Z,101800.34
2022-10-12T17:20:09.949Z,101800.94
2022-10-12T17:22:36.901Z,101799.56
2022-10-12T17:25:04.217Z,101800.97
2022-10-12T17:27:32.394Z,101801.84
2022-10-12T17:29:59.669Z,101799.38
2022-10-12T17:32:27.199Z,101798.28
2022-10-12T17:34:54.230Z,101795.25
2022-10-12T17:37:22.019Z,101803.28
2022-10-12T17:39:50.393Z,101795.56
2022-10-12T17:42:20.752Z,101796.41
2022-10-12T17:44:47.796Z,101787.84
2022-10-12T17:47:14.976Z,101788.72
2022-10-12T17:49:42.132Z,101789.25
2022-10-12T17:52:09.265Z,101781.81
2022-10-12T17:54:36.373Z,101778.78
2022-10-12T17:57:03.581Z,101784.06
2022-10-12T17:59:30.683Z,101788.22
2022-10-12T18:01:57.828Z,101778.81
2022-10-12T18:04:24.813Z,101778.53
2022-10-12T18:06:51.745Z,101779.41
2022-10-12T18:09:18.702Z,101786.34
2022-10-12T18:11:45.668Z,101781.63
2022-10-12T18:14:13.377Z,101782.47
2022-10-12T18:16:41.498Z,101773.94
2022-10-12T18:19:11.392Z,101780.81
2022-10-12T18:21:40.021Z,101770.34
2022-10-12T18:24:16.371Z,101769.22
2022-10-12T18:26:48.076Z,101764.81
2022-10-12T18:29:15.898Z,101762.06
2022-10-12T18:31:42.852Z,101765.63
2022-10-12T18:34:10.461Z,101762.06
2022-10-12T18:36:38.236Z,101762.91
2022-10-12T18:39:05.210Z,101764.56
2022-10-12T18:41:32.426Z,101755.72
2022-10-12T18:44:02.551Z,101756.84
2022-10-12T18:46:33.725Z,101756.00
2022-10-12T18:49:07.023Z,101752.94
2022-10-12T18:51:43.466Z,101757.91
2022-10-12T18:54:13.955Z,101759.03
2022-10-12T18:56:41.850Z,101764.84
2022-10-12T18:59:11.738Z,101763.72
2022-10-12T19:01:38.820Z,101760.69
2022-10-12T19:04:06.941Z,101759.28
2022-10-12T19:06:37.926Z,101751.56
2022-10-12T19:09:06.213Z,101751.84
2022-10-12T19:11:34.721Z,101750.44
2022-10-12T19:14:13.956Z,101748.50
2022-10-12T19:16:42.390Z,101738.84
2022-10-12T19:19:20.779Z,101736.66
2022-10-12T19:21:51.096Z,101743.81
2022-10-12T19:24:21.050Z,101738.84
2022-10-12T19:26:49.011Z,101744.88
2022-10-12T19:29:16.194Z,101743.25
2022-10-12T19:31:47.867Z,101744.31
2022-10-12T19:34:19.716Z,101740.47
2022-10-12T19:36:47.717Z,101745.19
2022-10-12T19:39:19.896Z,101733.81
2022-10-12T19:41:48.638Z,101737.41
2022-10-12T19:44:15.927Z,101731.06
2022-10-12T19:46:47.354Z,101736.28
2022-10-12T19:49:18.218Z,101734.34
2022-10-12T19:51:46.567Z,101733.25
2022-10-12T19:54:16.129Z,101732.69
2022-10-12T19:56:43.208Z,101728.00
2022-10-12T19:59:10.872Z,101729.38
2022-10-12T20:01:40.134Z,101736.25
2022-10-12T20:04:12.144Z,101731.28
2022-10-12T20:06:41.191Z,101730.44
2022-10-12T20:09:10.819Z,101726.31
2022-10-12T20:11:38.601Z,101726.31
2022-10-12T20:14:07.230Z,101728.50
2022-10-12T20:16:35.351Z,101721.06
2022-10-12T20:19:04.481Z,101720.25
2022-10-12T20:21:31.664Z,101722.13
2022-10-12T20:23:58.685Z,101725.44
2022-10-12T20:26:26.805Z,101722.13
2022-10-12T20:28:55.652Z,101717.19
2022-10-12T20:31:24.797Z,101718.81
2022-10-12T20:33:54.286Z,101713.81
2022-10-12T20:36:28.506Z,101707.50
2022-10-12T20:38:58.350Z,101716.00
2022-10-12T20:41:27.774Z,101708.28
2022-10-12T20:43:58.604Z,101714.06
2022-10-12T20:46:27.470Z,101711.31
2022-10-12T20:49:00.834Z,101706.88
2022-10-12T20:51:34.262Z,101709.63
2022-10-12T20:54:04.108Z,101707.13
2022-10-12T20:56:33.761Z,101706.59
2022-10-12T20:59:02.022Z,101704.41
2022-10-12T21:01:29.440Z,101693.38
2022-10-12T21:03:57.307Z,101688.16
2022-10-12T21:06:24.503Z,101692.53
2022-10-12T21:08:58.183Z,101683.97
2022-10-12T21:11:25.817Z,101676.28
2022-10-12T21:13:54.725Z,101678.19
2022-10-12T21:16:21.757Z,101673.78
2022-10-12T21:18:49.210Z,101669.09
2022-10-12T21:21:19.408Z,101675.72
2022-10-12T21:23:59.124Z,101685.06
2022-10-12T21:26:30.475Z,101677.34
2022-10-12T21:29:00.517Z,101669.13
2022-10-12T21:31:32.289Z,101671.59
2022-10-12T21:34:04.261Z,101664.97
2022-10-12T21:36:36.513Z,101669.91
2022-10-12T21:39:16.394Z,101676.53
2022-10-12T21:41:43.692Z,101677.63
2022-10-12T21:44:12.357Z,101672.41
2022-10-12T21:46:39.936Z,101685.88
2022-10-12T21:49:08.457Z,101681.72
2022-10-12T21:51:37.548Z,101687.50
2022-10-12T21:54:07.628Z,101682.53
2022-10-12T21:56:36.829Z,101688.03
2022-10-12T21:59:06.478Z,101689.94
2022-10-12T22:01:39.341Z,101673.16
2022-10-12T22:04:14.291Z,101669.59
2022-10-12T22:06:43.500Z,101672.03
2022-10-12T22:09:18.991Z,101673.94
2022-10-12T22:11:47.150Z,101676.69
2022-10-12T22:14:18.774Z,101670.63
2022-10-12T22:16:46.784Z,101671.16
2022-10-12T22:19:20.008Z,101672.78
2022-10-12T22:21:51.267Z,101661.22
2022-10-12T22:24:21.842Z,101666.97
2022-10-12T22:26:49.797Z,101662.59
2022-10-12T22:29:16.878Z,101662.53
2022-10-12T22:31:44.682Z,101657.31
2022-10-12T22:34:11.775Z,101662.81
2022-10-12T22:36:39.084Z,101652.34
2022-10-12T22:39:06.235Z,101661.38
2022-10-12T22:41:33.242Z,101659.75
2022-10-12T22:44:00.390Z,101655.88
2022-10-12T22:46:27.677Z,101655.31
2022-10-12T22:48:54.912Z,101656.69
2022-10-12T22:51:36.407Z,101652.81
2022-10-12T22:54:04.026Z,101649.25
2022-10-12T22:56:31.830Z,101645.13
2022-10-12T22:59:03.943Z,101636.88
2022-10-12T23:01:30.957Z,101645.66
2022-10-12T23:03:57.927Z,101637.94
2022-10-12T23:06:26.122Z,101640.38
2022-10-12T23:08:53.649Z,101641.22
2022-10-12T23:11:26.252Z,101629.94
2022-10-12T23:13:56.811Z,101639.28
2022-10-12T23:16:30.185Z,101644.47
2022-10-12T23:19:03.967Z,101646.41
2022-10-12T23:21:34.681Z,101643.34
2022-10-12T23:24:05.174Z,101632.91
2022-10-12T23:26:32.467Z,101635.91
2022-10-12T23:29:00.274Z,101631.22
2022-10-12T23:31:30.940Z,101629.56
2022-10-12T23:34:05.991Z,101635.91
2022-10-12T23:36:33.892Z,101631.75
2022-10-12T23:39:02.118Z,101635.88
2022-10-12T23:41:29.398Z,101637.50
2022-10-12T23:43:56.490Z,101633.06
2022-10-12T23:46:23.484Z,101632.78
2022-10-12T23:48:50.463Z,101628.63
2022-10-12T23:51:17.444Z,101629.72
2022-10-12T23:53:44.927Z,101629.72
2022-10-12T23:56:12.482Z,101619.56
2022-10-12T23:58:40.797Z,101619.28
